sensor_id;sensor_type;location;lat;lon;timestamp;temperature;humidity
64499;SHT31;51087;55.718;21.122;2023-05-10T00:02:02;8.14;58.97
64499;SHT31;51087;55.718;21.122;2023-05-10T00:04:27;8.28;58.75
64499;SHT31;51087;55.718;21.122;2023-05-10T00:06:53;8.25;58.66
64499;SHT31;51087;55.718;21.122;2023-05-10T00:09:19;8.17;59.17
64499;SHT31;51087;55.718;21.122;2023-05-10T00:11:44;8.15;58.94
64499;SHT31;51087;55.718;21.122;2023-05-10T00:14:10;8.34;58.45
64499;SHT31;51087;55.718;21.122;2023-05-10T00:16:36;8.35;58.23
64499;SHT31;51087;55.718;21.122;2023-05-10T00:19:01;8.40;58.13
64499;SHT31;51087;55.718;21.122;2023-05-10T00:21:26;8.40;57.98
64499;SHT31;51087;55.718;21.122;2023-05-10T00:23:53;8.52;57.44
64499;SHT31;51087;55.718;21.122;2023-05-10T00:26:18;8.35;58.00
64499;SHT31;51087;55.718;21.122;2023-05-10T00:28:45;8.59;57.15
64499;SHT31;51087;55.718;21.122;2023-05-10T00:31:10;8.73;56.75
64499;SHT31;51087;55.718;21.122;2023-05-10T00:33:36;8.61;57.13
64499;SHT31;51087;55.718;21.122;2023-05-10T00:36:02;8.61;57.08
64499;SHT31;51087;55.718;21.122;2023-05-10T00:38:28;8.75;56.74
64499;SHT31;51087;55.718;21.122;2023-05-10T00:40:54;8.87;56.50
64499;SHT31;51087;55.718;21.122;2023-05-10T00:43:19;8.77;56.78
64499;SHT31;51087;55.718;21.122;2023-05-10T00:45:44;8.79;56.87
64499;SHT31;51087;55.718;21.122;2023-05-10T00:48:10;8.66;57.42
64499;SHT31;51087;55.718;21.122;2023-05-10T00:50:38;8.53;57.67
64499;SHT31;51087;55.718;21.122;2023-05-10T00:53:05;8.53;58.03
64499;SHT31;51087;55.718;21.122;2023-05-10T00:55:30;8.55;57.87
64499;SHT31;51087;55.718;21.122;2023-05-10T00:57:56;8.46;58.24
64499;SHT31;51087;55.718;21.122;2023-05-10T01:00:22;8.33;58.79
64499;SHT31;51087;55.718;21.122;2023-05-10T01:02:47;8.27;59.03
64499;SHT31;51087;55.718;21.122;2023-05-10T01:05:13;8.27;59.11
64499;SHT31;51087;55.718;21.122;2023-05-10T01:07:39;8.14;59.77
64499;SHT31;51087;55.718;21.122;2023-05-10T01:10:06;8.23;59.70
64499;SHT31;51087;55.718;21.122;2023-05-10T01:12:34;8.11;60.11
64499;SHT31;51087;55.718;21.122;2023-05-10T01:15:01;8.03;60.65
64499;SHT31;51087;55.718;21.122;2023-05-10T01:17:27;7.94;60.60
64499;SHT31;51087;55.718;21.122;2023-05-10T01:19:53;7.89;61.00
64499;SHT31;51087;55.718;21.122;2023-05-10T01:25:44;7.91;60.98
64499;SHT31;51087;55.718;21.122;2023-05-10T01:28:39;7.76;61.30
64499;SHT31;51087;55.718;21.122;2023-05-10T01:31:22;7.59;62.04
64499;SHT31;51087;55.718;21.122;2023-05-10T01:33:59;7.49;63.03
64499;SHT31;51087;55.718;21.122;2023-05-10T01:38:59;7.34;63.24
64499;SHT31;51087;55.718;21.122;2023-05-10T01:41:49;7.25;63.82
64499;SHT31;51087;55.718;21.122;2023-05-10T01:44:35;7.11;64.06
64499;SHT31;51087;55.718;21.122;2023-05-10T01:49:53;6.89;64.76
64499;SHT31;51087;55.718;21.122;2023-05-10T01:52:25;6.83;65.14
64499;SHT31;51087;55.718;21.122;2023-05-10T01:55:07;6.86;64.93
64499;SHT31;51087;55.718;21.122;2023-05-10T01:57:36;6.94;64.52
64499;SHT31;51087;55.718;21.122;2023-05-10T02:00:03;6.79;64.90
64499;SHT31;51087;55.718;21.122;2023-05-10T02:02:39;6.72;64.94
64499;SHT31;51087;55.718;21.122;2023-05-10T02:05:07;6.53;65.23
64499;SHT31;51087;55.718;21.122;2023-05-10T02:07:35;6.55;65.39
64499;SHT31;51087;55.718;21.122;2023-05-10T02:10:02;6.61;65.30
64499;SHT31;51087;55.718;21.122;2023-05-10T02:12:29;6.55;65.31
64499;SHT31;51087;55.718;21.122;2023-05-10T02:14:57;6.55;65.26
64499;SHT31;51087;55.718;21.122;2023-05-10T02:17:24;6.52;65.55
64499;SHT31;51087;55.718;21.122;2023-05-10T02:19:51;6.44;65.56
64499;SHT31;51087;55.718;21.122;2023-05-10T02:22:18;6.39;65.74
64499;SHT31;51087;55.718;21.122;2023-05-10T02:24:45;6.50;65.18
64499;SHT31;51087;55.718;21.122;2023-05-10T02:27:12;6.53;65.22
64499;SHT31;51087;55.718;21.122;2023-05-10T02:29:39;6.39;65.40
64499;SHT31;51087;55.718;21.122;2023-05-10T02:32:05;6.34;65.55
64499;SHT31;51087;55.718;21.122;2023-05-10T02:34:32;6.50;65.16
64499;SHT31;51087;55.718;21.122;2023-05-10T02:36:59;6.50;65.02
64499;SHT31;51087;55.718;21.122;2023-05-10T02:39:26;6.39;65.37
64499;SHT31;51087;55.718;21.122;2023-05-10T02:41:53;6.39;65.45
64499;SHT31;51087;55.718;21.122;2023-05-10T02:44:21;6.46;65.46
64499;SHT31;51087;55.718;21.122;2023-05-10T02:46:47;6.42;65.62
64499;SHT31;51087;55.718;21.122;2023-05-10T02:49:13;6.44;65.83
64499;SHT31;51087;55.718;21.122;2023-05-10T02:51:42;6.32;65.99
64499;SHT31;51087;55.718;21.122;2023-05-10T02:54:17;6.24;66.51
64499;SHT31;51087;55.718;21.122;2023-05-10T02:56:47;6.39;66.40
64499;SHT31;51087;55.718;21.122;2023-05-10T02:59:15;6.31;66.36
64499;SHT31;51087;55.718;21.122;2023-05-10T03:01:41;6.24;66.85
64499;SHT31;51087;55.718;21.122;2023-05-10T03:04:06;6.24;67.08
64499;SHT31;51087;55.718;21.122;2023-05-10T03:06:32;6.22;67.27
64499;SHT31;51087;55.718;21.122;2023-05-10T03:08:58;6.24;66.74
64499;SHT31;51087;55.718;21.122;2023-05-10T03:14:12;6.24;66.99
64499;SHT31;51087;55.718;21.122;2023-05-10T03:16:45;6.21;67.16
64499;SHT31;51087;55.718;21.122;2023-05-10T03:19:27;6.22;67.37
64499;SHT31;51087;55.718;21.122;2023-05-10T03:21:55;6.25;67.25
64499;SHT31;51087;55.718;21.122;2023-05-10T03:24:27;6.31;67.16
64499;SHT31;51087;55.718;21.122;2023-05-10T03:26:55;6.28;67.17
64499;SHT31;51087;55.718;21.122;2023-05-10T03:29:22;6.16;67.49
64499;SHT31;51087;55.718;21.122;2023-05-10T03:31:49;6.20;67.56
64499;SHT31;51087;55.718;21.122;2023-05-10T03:34:15;6.25;67.52
64499;SHT31;51087;55.718;21.122;2023-05-10T03:36:40;6.34;67.32
64499;SHT31;51087;55.718;21.122;2023-05-10T03:39:06;6.41;66.84
64499;SHT31;51087;55.718;21.122;2023-05-10T03:41:31;6.37;67.01
64499;SHT31;51087;55.718;21.122;2023-05-10T03:43:56;6.57;66.39
64499;SHT31;51087;55.718;21.122;2023-05-10T03:46:22;6.65;65.93
64499;SHT31;51087;55.718;21.122;2023-05-10T03:48:47;6.77;65.02
64499;SHT31;51087;55.718;21.122;2023-05-10T03:51:12;6.80;65.42
64499;SHT31;51087;55.718;21.122;2023-05-10T03:53:38;6.93;65.05
64499;SHT31;51087;55.718;21.122;2023-05-10T03:56:03;6.96;64.84
64499;SHT31;51087;55.718;21.122;2023-05-10T03:58:29;7.00;64.76
64499;SHT31;51087;55.718;21.122;2023-05-10T04:00:54;6.97;65.17
64499;SHT31;51087;55.718;21.122;2023-05-10T04:03:20;7.05;64.34
64499;SHT31;51087;55.718;21.122;2023-05-10T04:05:45;7.24;64.16
64499;SHT31;51087;55.718;21.122;2023-05-10T04:08:11;7.27;64.00
64499;SHT31;51087;55.718;21.122;2023-05-10T04:10:36;7.30;64.19
64499;SHT31;51087;55.718;21.122;2023-05-10T04:13:02;7.36;63.68
64499;SHT31;51087;55.718;21.122;2023-05-10T04:15:27;7.39;63.86
64499;SHT31;51087;55.718;21.122;2023-05-10T04:17:52;7.45;64.04
64499;SHT31;51087;55.718;21.122;2023-05-10T04:20:18;7.48;63.95
64499;SHT31;51087;55.718;21.122;2023-05-10T04:22:44;7.66;63.08
64499;SHT31;51087;55.718;21.122;2023-05-10T04:25:10;7.73;62.80
64499;SHT31;51087;55.718;21.122;2023-05-10T04:27:35;7.89;62.41
64499;SHT31;51087;55.718;21.122;2023-05-10T04:30:01;7.97;62.02
64499;SHT31;51087;55.718;21.122;2023-05-10T04:32:27;8.13;62.19
64499;SHT31;51087;55.718;21.122;2023-05-10T04:34:53;8.18;61.58
64499;SHT31;51087;55.718;21.122;2023-05-10T04:37:18;8.30;61.26
64499;SHT31;51087;55.718;21.122;2023-05-10T04:39:44;8.37;61.01
64499;SHT31;51087;55.718;21.122;2023-05-10T04:42:10;8.49;60.63
64499;SHT31;51087;55.718;21.122;2023-05-10T04:44:35;8.59;60.51
64499;SHT31;51087;55.718;21.122;2023-05-10T04:47:01;8.75;59.85
64499;SHT31;51087;55.718;21.122;2023-05-10T04:49:28;8.89;59.57
64499;SHT31;51087;55.718;21.122;2023-05-10T04:51:54;9.01;58.93
64499;SHT31;51087;55.718;21.122;2023-05-10T04:54:20;9.07;59.31
64499;SHT31;51087;55.718;21.122;2023-05-10T04:56:45;9.20;58.65
64499;SHT31;51087;55.718;21.122;2023-05-10T04:59:10;9.24;59.04
64499;SHT31;51087;55.718;21.122;2023-05-10T05:01:36;9.38;58.12
64499;SHT31;51087;55.718;21.122;2023-05-10T05:04:01;9.49;58.24
64499;SHT31;51087;55.718;21.122;2023-05-10T05:06:27;9.54;57.99
64499;SHT31;51087;55.718;21.122;2023-05-10T05:08:53;9.75;57.27
64499;SHT31;51087;55.718;21.122;2023-05-10T05:11:19;9.79;57.40
64499;SHT31;51087;55.718;21.122;2023-05-10T05:13:46;9.89;57.38
64499;SHT31;51087;55.718;21.122;2023-05-10T05:16:11;10.02;56.77
64499;SHT31;51087;55.718;21.122;2023-05-10T05:18:36;10.17;56.32
64499;SHT31;51087;55.718;21.122;2023-05-10T05:21:02;10.24;56.79
64499;SHT31;51087;55.718;21.122;2023-05-10T05:23:28;10.37;56.49
64499;SHT31;51087;55.718;21.122;2023-05-10T05:25:53;10.48;56.29
64499;SHT31;51087;55.718;21.122;2023-05-10T05:28:22;10.51;56.37
64499;SHT31;51087;55.718;21.122;2023-05-10T05:30:47;10.69;55.93
64499;SHT31;51087;55.718;21.122;2023-05-10T05:33:13;10.69;56.13
64499;SHT31;51087;55.718;21.122;2023-05-10T05:35:40;10.79;56.04
64499;SHT31;51087;55.718;21.122;2023-05-10T05:38:07;10.89;55.66
64499;SHT31;51087;55.718;21.122;2023-05-10T05:40:33;10.91;55.39
64499;SHT31;51087;55.718;21.122;2023-05-10T05:42:58;10.96;55.52
64499;SHT31;51087;55.718;21.122;2023-05-10T05:45:24;11.10;55.70
64499;SHT31;51087;55.718;21.122;2023-05-10T05:47:49;11.22;55.40
64499;SHT31;51087;55.718;21.122;2023-05-10T05:50:14;11.33;54.26
64499;SHT31;51087;55.718;21.122;2023-05-10T05:52:40;11.38;54.63
64499;SHT31;51087;55.718;21.122;2023-05-10T05:55:06;11.41;54.54
64499;SHT31;51087;55.718;21.122;2023-05-10T05:57:31;11.51;54.11
64499;SHT31;51087;55.718;21.122;2023-05-10T05:59:58;11.54;54.47
64499;SHT31;51087;55.718;21.122;2023-05-10T06:02:24;11.61;54.35
64499;SHT31;51087;55.718;21.122;2023-05-10T06:04:50;11.74;54.59
64499;SHT31;51087;55.718;21.122;2023-05-10T06:07:15;11.81;53.45
64499;SHT31;51087;55.718;21.122;2023-05-10T06:09:41;11.96;53.52
64499;SHT31;51087;55.718;21.122;2023-05-10T06:12:06;12.13;53.31
64499;SHT31;51087;55.718;21.122;2023-05-10T06:14:31;12.17;53.34
64499;SHT31;51087;55.718;21.122;2023-05-10T06:16:57;12.25;53.04
64499;SHT31;51087;55.718;21.122;2023-05-10T06:19:24;12.33;52.72
64499;SHT31;51087;55.718;21.122;2023-05-10T06:21:51;12.45;52.31
64499;SHT31;51087;55.718;21.122;2023-05-10T06:24:17;12.50;52.17
64499;SHT31;51087;55.718;21.122;2023-05-10T06:26:42;12.75;51.88
64499;SHT31;51087;55.718;21.122;2023-05-10T06:29:07;12.74;52.28
64499;SHT31;51087;55.718;21.122;2023-05-10T06:31:33;12.96;50.98
64499;SHT31;51087;55.718;21.122;2023-05-10T06:33:58;13.05;50.36
64499;SHT31;51087;55.718;21.122;2023-05-10T06:36:24;13.12;51.19
64499;SHT31;51087;55.718;21.122;2023-05-10T06:38:51;13.20;50.79
64499;SHT31;51087;55.718;21.122;2023-05-10T06:41:17;13.30;50.55
64499;SHT31;51087;55.718;21.122;2023-05-10T06:43:42;13.35;49.71
64499;SHT31;51087;55.718;21.122;2023-05-10T06:46:08;13.50;50.05
64499;SHT31;51087;55.718;21.122;2023-05-10T06:48:33;13.54;50.64
64499;SHT31;51087;55.718;21.122;2023-05-10T06:50:59;13.70;48.51
64499;SHT31;51087;55.718;21.122;2023-05-10T06:53:24;13.71;48.69
64499;SHT31;51087;55.718;21.122;2023-05-10T06:55:50;13.82;49.12
64499;SHT31;51087;55.718;21.122;2023-05-10T06:58:16;13.86;49.55
64499;SHT31;51087;55.718;21.122;2023-05-10T07:00:41;14.01;49.73
64499;SHT31;51087;55.718;21.122;2023-05-10T07:03:09;14.12;48.59
64499;SHT31;51087;55.718;21.122;2023-05-10T07:05:38;14.33;46.31
64499;SHT31;51087;55.718;21.122;2023-05-10T07:08:03;14.40;46.69
64499;SHT31;51087;55.718;21.122;2023-05-10T07:10:29;14.50;46.38
64499;SHT31;51087;55.718;21.122;2023-05-10T07:12:55;14.67;45.17
64499;SHT31;51087;55.718;21.122;2023-05-10T07:15:20;14.77;45.02
64499;SHT31;51087;55.718;21.122;2023-05-10T07:17:46;14.84;45.12
64499;SHT31;51087;55.718;21.122;2023-05-10T07:20:12;14.94;44.32
64499;SHT31;51087;55.718;21.122;2023-05-10T07:22:37;14.99;44.86
64499;SHT31;51087;55.718;21.122;2023-05-10T07:25:03;15.04;44.12
64499;SHT31;51087;55.718;21.122;2023-05-10T07:27:29;15.15;44.41
64499;SHT31;51087;55.718;21.122;2023-05-10T07:29:55;15.24;43.55
64499;SHT31;51087;55.718;21.122;2023-05-10T07:32:21;15.38;43.58
64499;SHT31;51087;55.718;21.122;2023-05-10T07:34:47;15.50;43.74
64499;SHT31;51087;55.718;21.122;2023-05-10T07:37:12;15.53;43.95
64499;SHT31;51087;55.718;21.122;2023-05-10T07:39:38;15.70;41.69
64499;SHT31;51087;55.718;21.122;2023-05-10T07:42:03;15.80;40.63
64499;SHT31;51087;55.718;21.122;2023-05-10T07:44:28;15.84;41.86
64499;SHT31;51087;55.718;21.122;2023-05-10T07:46:54;15.84;42.41
64499;SHT31;51087;55.718;21.122;2023-05-10T07:49:20;15.90;42.91
64499;SHT31;51087;55.718;21.122;2023-05-10T07:51:45;16.02;42.53
64499;SHT31;51087;55.718;21.122;2023-05-10T07:54:11;16.18;42.44
64499;SHT31;51087;55.718;21.122;2023-05-10T07:56:37;16.22;39.07
64499;SHT31;51087;55.718;21.122;2023-05-10T07:59:04;16.35;39.56
64499;SHT31;51087;55.718;21.122;2023-05-10T08:01:32;16.45;40.56
64499;SHT31;51087;55.718;21.122;2023-05-10T08:03:58;16.52;41.25
64499;SHT31;51087;55.718;21.122;2023-05-10T08:06:23;16.55;39.82
64499;SHT31;51087;55.718;21.122;2023-05-10T08:08:49;16.53;39.48
64499;SHT31;51087;55.718;21.122;2023-05-10T08:11:18;16.62;38.33
64499;SHT31;51087;55.718;21.122;2023-05-10T08:13:47;16.55;35.92
64499;SHT31;51087;55.718;21.122;2023-05-10T08:16:14;16.70;35.36
64499;SHT31;51087;55.718;21.122;2023-05-10T08:18:39;16.80;36.07
64499;SHT31;51087;55.718;21.122;2023-05-10T08:21:05;16.91;35.89
64499;SHT31;51087;55.718;21.122;2023-05-10T08:23:30;16.90;35.83
64499;SHT31;51087;55.718;21.122;2023-05-10T08:25:56;16.97;36.47
64499;SHT31;51087;55.718;21.122;2023-05-10T08:28:21;17.17;36.45
64499;SHT31;51087;55.718;21.122;2023-05-10T08:30:47;17.10;34.62
64499;SHT31;51087;55.718;21.122;2023-05-10T08:33:12;17.59;35.12
64499;SHT31;51087;55.718;21.122;2023-05-10T08:35:38;17.66;34.06
64499;SHT31;51087;55.718;21.122;2023-05-10T08:38:03;17.70;33.50
64499;SHT31;51087;55.718;21.122;2023-05-10T08:40:29;17.72;33.25
64499;SHT31;51087;55.718;21.122;2023-05-10T08:42:59;17.94;34.19
64499;SHT31;51087;55.718;21.122;2023-05-10T08:45:27;17.98;34.95
64499;SHT31;51087;55.718;21.122;2023-05-10T08:47:56;18.35;35.22
64499;SHT31;51087;55.718;21.122;2023-05-10T08:50:24;19.07;33.42
64499;SHT31;51087;55.718;21.122;2023-05-10T08:52:52;19.59;32.81
64499;SHT31;51087;55.718;21.122;2023-05-10T08:55:20;20.55;30.51
64499;SHT31;51087;55.718;21.122;2023-05-10T08:57:45;20.89;30.46
64499;SHT31;51087;55.718;21.122;2023-05-10T09:00:12;21.14;29.79
64499;SHT31;51087;55.718;21.122;2023-05-10T09:02:39;21.61;28.08
64499;SHT31;51087;55.718;21.122;2023-05-10T09:05:04;21.69;28.35
64499;SHT31;51087;55.718;21.122;2023-05-10T09:07:30;22.16;28.31
64499;SHT31;51087;55.718;21.122;2023-05-10T09:09:57;22.81;28.12
64499;SHT31;51087;55.718;21.122;2023-05-10T09:12:23;23.15;26.83
64499;SHT31;51087;55.718;21.122;2023-05-10T09:14:50;22.67;27.49
64499;SHT31;51087;55.718;21.122;2023-05-10T09:17:17;23.43;27.04
64499;SHT31;51087;55.718;21.122;2023-05-10T09:19:44;25.39;26.29
64499;SHT31;51087;55.718;21.122;2023-05-10T09:22:10;26.49;24.83
64499;SHT31;51087;55.718;21.122;2023-05-10T09:24:35;27.96;22.31
64499;SHT31;51087;55.718;21.122;2023-05-10T09:27:02;29.34;21.27
64499;SHT31;51087;55.718;21.122;2023-05-10T09:29:39;29.40;20.73
64499;SHT31;51087;55.718;21.122;2023-05-10T09:32:05;29.91;19.96
64499;SHT31;51087;55.718;21.122;2023-05-10T09:34:31;29.92;19.79
64499;SHT31;51087;55.718;21.122;2023-05-10T09:36:59;29.60;20.28
64499;SHT31;51087;55.718;21.122;2023-05-10T09:39:33;31.72;19.63
64499;SHT31;51087;55.718;21.122;2023-05-10T09:42:01;31.88;19.19
64499;SHT31;51087;55.718;21.122;2023-05-10T09:44:29;32.35;18.67
64499;SHT31;51087;55.718;21.122;2023-05-10T09:46:54;30.57;20.00
64499;SHT31;51087;55.718;21.122;2023-05-10T09:49:21;29.97;20.16
64499;SHT31;51087;55.718;21.122;2023-05-10T09:51:46;31.21;19.75
64499;SHT31;51087;55.718;21.122;2023-05-10T09:54:16;31.35;20.54
64499;SHT31;51087;55.718;21.122;2023-05-10T09:56:42;31.93;19.78
64499;SHT31;51087;55.718;21.122;2023-05-10T09:59:10;33.48;18.61
64499;SHT31;51087;55.718;21.122;2023-05-10T10:01:36;34.17;17.63
64499;SHT31;51087;55.718;21.122;2023-05-10T10:04:06;33.92;18.40
64499;SHT31;51087;55.718;21.122;2023-05-10T10:06:39;33.68;17.45
64499;SHT31;51087;55.718;21.122;2023-05-10T10:09:06;34.02;17.80
64499;SHT31;51087;55.718;21.122;2023-05-10T10:11:33;33.17;18.01
64499;SHT31;51087;55.718;21.122;2023-05-10T10:13:59;34.08;17.52
64499;SHT31;51087;55.718;21.122;2023-05-10T10:16:25;35.25;17.38
64499;SHT31;51087;55.718;21.122;2023-05-10T10:18:51;33.45;17.43
64499;SHT31;51087;55.718;21.122;2023-05-10T10:21:17;34.72;16.77
64499;SHT31;51087;55.718;21.122;2023-05-10T10:23:42;35.87;16.81
64499;SHT31;51087;55.718;21.122;2023-05-10T10:26:10;36.83;16.09
64499;SHT31;51087;55.718;21.122;2023-05-10T10:31:39;36.72;15.55
64499;SHT31;51087;55.718;21.122;2023-05-10T10:34:06;37.21;15.36
64499;SHT31;51087;55.718;21.122;2023-05-10T10:36:42;37.48;15.78
64499;SHT31;51087;55.718;21.122;2023-05-10T10:39:09;38.40;15.12
64499;SHT31;51087;55.718;21.122;2023-05-10T10:41:40;37.90;15.44
64499;SHT31;51087;55.718;21.122;2023-05-10T10:57:33;39.22;14.42
64499;SHT31;51087;55.718;21.122;2023-05-10T11:02:56;36.45;15.43
64499;SHT31;51087;55.718;21.122;2023-05-10T11:05:48;35.03;16.10
64499;SHT31;51087;55.718;21.122;2023-05-10T11:08:16;38.40;15.02
64499;SHT31;51087;55.718;21.122;2023-05-10T11:13:32;40.43;13.86
64499;SHT31;51087;55.718;21.122;2023-05-10T11:15:59;41.29;13.92
64499;SHT31;51087;55.718;21.122;2023-05-10T11:18:28;39.61;14.12
64499;SHT31;51087;55.718;21.122;2023-05-10T11:21:00;38.41;14.73
64499;SHT31;51087;55.718;21.122;2023-05-10T11:26:13;34.51;16.32
64499;SHT31;51087;55.718;21.122;2023-05-10T11:28:45;34.80;16.47
64499;SHT31;51087;55.718;21.122;2023-05-10T11:31:18;37.04;15.92
64499;SHT31;51087;55.718;21.122;2023-05-10T11:33:51;39.26;14.97
64499;SHT31;51087;55.718;21.122;2023-05-10T11:36:20;41.49;14.08
64499;SHT31;51087;55.718;21.122;2023-05-10T11:38:46;38.82;14.86
64499;SHT31;51087;55.718;21.122;2023-05-10T11:41:13;38.57;14.86
64499;SHT31;51087;55.718;21.122;2023-05-10T11:43:39;38.28;15.18
64499;SHT31;51087;55.718;21.122;2023-05-10T11:46:06;40.33;14.38
64499;SHT31;51087;55.718;21.122;2023-05-10T11:48:32;39.79;14.36
64499;SHT31;51087;55.718;21.122;2023-05-10T11:50:58;39.98;14.48
64499;SHT31;51087;55.718;21.122;2023-05-10T11:53:26;39.24;14.50
64499;SHT31;51087;55.718;21.122;2023-05-10T11:55:52;38.61;14.93
64499;SHT31;51087;55.718;21.122;2023-05-10T11:58:18;37.80;15.21
64499;SHT31;51087;55.718;21.122;2023-05-10T12:00:44;39.41;14.80
64499;SHT31;51087;55.718;21.122;2023-05-10T12:03:10;37.10;15.00
64499;SHT31;51087;55.718;21.122;2023-05-10T12:05:36;37.15;15.51
64499;SHT31;51087;55.718;21.122;2023-05-10T12:08:15;37.94;15.07
64499;SHT31;51087;55.718;21.122;2023-05-10T12:10:40;36.08;15.95
64499;SHT31;51087;55.718;21.122;2023-05-10T12:13:11;38.06;15.46
64499;SHT31;51087;55.718;21.122;2023-05-10T12:15:38;39.77;14.72
64499;SHT31;51087;55.718;21.122;2023-05-10T12:18:03;41.05;14.14
64499;SHT31;51087;55.718;21.122;2023-05-10T12:20:30;41.63;13.74
64499;SHT31;51087;55.718;21.122;2023-05-10T12:22:57;42.41;13.26
64499;SHT31;51087;55.718;21.122;2023-05-10T12:25:29;41.22;13.40
64499;SHT31;51087;55.718;21.122;2023-05-10T12:27:56;39.29;14.44
64499;SHT31;51087;55.718;21.122;2023-05-10T12:30:25;40.49;14.47
64499;SHT31;51087;55.718;21.122;2023-05-10T12:32:52;40.52;14.52
64499;SHT31;51087;55.718;21.122;2023-05-10T12:35:18;41.08;13.93
64499;SHT31;51087;55.718;21.122;2023-05-10T12:37:47;41.72;13.91
64499;SHT31;51087;55.718;21.122;2023-05-10T12:40:13;39.44;14.35
64499;SHT31;51087;55.718;21.122;2023-05-10T12:42:39;40.49;14.48
64499;SHT31;51087;55.718;21.122;2023-05-10T12:45:05;39.75;14.18
64499;SHT31;51087;55.718;21.122;2023-05-10T12:47:32;39.29;14.75
64499;SHT31;51087;55.718;21.122;2023-05-10T12:49:57;38.31;15.31
64499;SHT31;51087;55.718;21.122;2023-05-10T12:52:24;40.81;14.38
64499;SHT31;51087;55.718;21.122;2023-05-10T12:54:49;40.32;14.52
64499;SHT31;51087;55.718;21.122;2023-05-10T12:57:15;38.71;14.82
64499;SHT31;51087;55.718;21.122;2023-05-10T12:59:40;37.22;15.56
64499;SHT31;51087;55.718;21.122;2023-05-10T13:02:06;36.63;15.58
64499;SHT31;51087;55.718;21.122;2023-05-10T13:04:34;34.03;16.90
64499;SHT31;51087;55.718;21.122;2023-05-10T13:07:00;34.64;17.01
64499;SHT31;51087;55.718;21.122;2023-05-10T13:09:26;34.80;16.51
64499;SHT31;51087;55.718;21.122;2023-05-10T13:11:52;36.65;15.97
64499;SHT31;51087;55.718;21.122;2023-05-10T13:14:21;37.38;15.55
64499;SHT31;51087;55.718;21.122;2023-05-10T13:16:47;38.14;15.30
64499;SHT31;51087;55.718;21.122;2023-05-10T13:19:16;38.34;15.22
64499;SHT31;51087;55.718;21.122;2023-05-10T13:21:43;35.70;16.37
64499;SHT31;51087;55.718;21.122;2023-05-10T13:24:10;36.14;16.31
64499;SHT31;51087;55.718;21.122;2023-05-10T13:26:39;35.05;16.10
64499;SHT31;51087;55.718;21.122;2023-05-10T13:29:06;35.77;16.23
64499;SHT31;51087;55.718;21.122;2023-05-10T13:31:32;35.73;16.34
64499;SHT31;51087;55.718;21.122;2023-05-10T13:34:03;34.57;16.51
64499;SHT31;51087;55.718;21.122;2023-05-10T13:36:29;33.69;17.18
64499;SHT31;51087;55.718;21.122;2023-05-10T13:38:55;34.34;16.63
64499;SHT31;51087;55.718;21.122;2023-05-10T13:41:25;34.15;16.76
64499;SHT31;51087;55.718;21.122;2023-05-10T13:43:51;33.24;17.35
64499;SHT31;51087;55.718;21.122;2023-05-10T13:46:17;32.01;18.31
64499;SHT31;51087;55.718;21.122;2023-05-10T13:48:42;31.74;18.34
64499;SHT31;51087;55.718;21.122;2023-05-10T13:51:08;30.68;18.78
64499;SHT31;51087;55.718;21.122;2023-05-10T13:53:34;32.05;18.37
64499;SHT31;51087;55.718;21.122;2023-05-10T13:56:00;31.91;18.60
64499;SHT31;51087;55.718;21.122;2023-05-10T13:58:25;30.99;18.73
64499;SHT31;51087;55.718;21.122;2023-05-10T14:00:52;29.95;19.69
64499;SHT31;51087;55.718;21.122;2023-05-10T14:03:17;29.43;20.27
64499;SHT31;51087;55.718;21.122;2023-05-10T14:05:43;28.23;20.78
64499;SHT31;51087;55.718;21.122;2023-05-10T14:08:10;27.62;21.45
64499;SHT31;51087;55.718;21.122;2023-05-10T14:10:38;27.40;21.74
64499;SHT31;51087;55.718;21.122;2023-05-10T14:13:04;26.66;22.43
64499;SHT31;51087;55.718;21.122;2023-05-10T14:15:30;27.23;22.79
64499;SHT31;51087;55.718;21.122;2023-05-10T14:17:56;27.18;22.38
64499;SHT31;51087;55.718;21.122;2023-05-10T14:20:22;26.73;22.24
64499;SHT31;51087;55.718;21.122;2023-05-10T14:22:47;27.27;21.97
64499;SHT31;51087;55.718;21.122;2023-05-10T14:25:13;27.45;21.92
64499;SHT31;51087;55.718;21.122;2023-05-10T14:27:39;27.26;21.97
64499;SHT31;51087;55.718;21.122;2023-05-10T14:30:05;26.38;22.69
64499;SHT31;51087;55.718;21.122;2023-05-10T14:32:31;26.80;22.89
64499;SHT31;51087;55.718;21.122;2023-05-10T14:34:57;26.45;22.66
64499;SHT31;51087;55.718;21.122;2023-05-10T14:37:23;27.16;22.78
64499;SHT31;51087;55.718;21.122;2023-05-10T14:39:48;27.45;22.17
64499;SHT31;51087;55.718;21.122;2023-05-10T14:42:14;27.06;22.34
64499;SHT31;51087;55.718;21.122;2023-05-10T14:44:40;26.80;22.92
64499;SHT31;51087;55.718;21.122;2023-05-10T14:47:05;27.65;22.11
64499;SHT31;51087;55.718;21.122;2023-05-10T14:49:31;27.54;21.94
64499;SHT31;51087;55.718;21.122;2023-05-10T14:51:57;28.16;21.76
64499;SHT31;51087;55.718;21.122;2023-05-10T14:54:23;28.65;20.98
64499;SHT31;51087;55.718;21.122;2023-05-10T14:56:49;28.82;20.83
64499;SHT31;51087;55.718;21.122;2023-05-10T14:59:17;28.65;21.31
64499;SHT31;51087;55.718;21.122;2023-05-10T15:01:46;29.73;20.35
64499;SHT31;51087;55.718;21.122;2023-05-10T15:04:12;29.63;20.05
64499;SHT31;51087;55.718;21.122;2023-05-10T15:06:38;30.50;19.61
64499;SHT31;51087;55.718;21.122;2023-05-10T15:09:05;31.59;18.99
64499;SHT31;51087;55.718;21.122;2023-05-10T15:11:33;30.98;19.21
64499;SHT31;51087;55.718;21.122;2023-05-10T15:13:58;30.43;19.60
64499;SHT31;51087;55.718;21.122;2023-05-10T15:16:24;31.53;19.17
64499;SHT31;51087;55.718;21.122;2023-05-10T15:18:50;31.62;19.03
64499;SHT31;51087;55.718;21.122;2023-05-10T15:21:16;32.61;18.41
64499;SHT31;51087;55.718;21.122;2023-05-10T15:23:42;34.03;17.79
64499;SHT31;51087;55.718;21.122;2023-05-10T15:26:08;31.67;18.19
64499;SHT31;51087;55.718;21.122;2023-05-10T15:28:35;30.94;19.11
64499;SHT31;51087;55.718;21.122;2023-05-10T15:31:00;30.53;19.49
64499;SHT31;51087;55.718;21.122;2023-05-10T15:33:26;31.63;18.84
64499;SHT31;51087;55.718;21.122;2023-05-10T15:35:53;31.87;18.57
64499;SHT31;51087;55.718;21.122;2023-05-10T15:38:19;31.11;19.06
64499;SHT31;51087;55.718;21.122;2023-05-10T15:40:45;31.14;19.06
64499;SHT31;51087;55.718;21.122;2023-05-10T15:43:12;32.01;18.94
64499;SHT31;51087;55.718;21.122;2023-05-10T15:45:38;30.68;19.34
64499;SHT31;51087;55.718;21.122;2023-05-10T15:48:04;30.28;19.75
64499;SHT31;51087;55.718;21.122;2023-05-10T15:50:29;30.15;19.72
64499;SHT31;51087;55.718;21.122;2023-05-10T15:52:55;30.32;19.94
64499;SHT31;51087;55.718;21.122;2023-05-10T15:55:21;29.02;20.86